Robstown, TX

7:43 PM CDT on April 23, 2017 (GMT -0500)
Robstown

Weather History for KRBO - November, 2012

Change the Weather History Date:

Saturday, November 17, 2012

  Actual Average (KCRP) Record (KCRP)
Temperature  
Mean Temperature 62 °F -  
Max Temperature 74 °F 73 °F 91 °F (1906)
Min Temperature 49 °F 55 °F 33 °F (1959)
Degree Days  
Heating Degree Days 4    
Growing Degree Days 12 (Base 50)    
Moisture  
Dew Point 46 °F    
Average Humidity 60    
Maximum Humidity 75    
Minimum Humidity 34    
Precipitation  
Precipitation 0.00 in - - ()
Sea Level Pressure  
Sea Level Pressure 30.30 in    
Wind  
Wind Speed 7 mph (NE)    
Max Wind Speed 12 mph    
Max Gust Speed -    
Visibility 10 miles    
Events      
Averages and records for this station are not official NWS values.
T = Trace of Precipitation, MM = Missing Value Source: NWS Daily Summary

Daily Weather History Graph

Daily Weather History Graph

Search for Another Location

Airport or City:

Trip Planner

Search our weather history database for the weather conditions in past years. The results will help you decide how hot, cold, wet, or windy it might be!

Date:

Astronomy

Nov. 17, 2012 Rise Set
Actual Time 6:53 AM CST 5:37 PM CST
Civil Twilight 6:29 AM CST 6:02 PM CST
Nautical Twilight 6:00 AM CST 6:30 PM CST
Astronomical Twilight 5:32 AM CST 6:58 PM CST
Moon 10:39 AM CST (11/17) 9:47 PM CST (11/17)
Length of Visible Light 11h 33m
Length of Day
10h 43m
Waxing Crescent, 20% of the Moon is Illuminated
Nov 17
Waxing Crescent
Nov 20
First Quarter
Nov 28
Full
Dec 6
Last Quarter
Dec 13
New

Hourly Weather History & Observations

Time (CST) Temp. Dew Point Humidity Pressure Visibility Wind Dir Wind Speed Gust Speed Precip Events Conditions
12:15 AM 50.7 °F 39.4 °F 65% 30.32 in 10.0 mi NNW 6.9 mph - N/A   Clear
12:35 AM 50.5 °F 40.6 °F 69% 30.32 in 10.0 mi NNW 6.9 mph - N/A   Clear
12:55 AM 50.2 °F 39.4 °F 66% 30.32 in 10.0 mi North 4.6 mph - N/A   Clear
1:15 AM 50.5 °F 39.7 °F 66% 30.32 in 10.0 mi North 6.9 mph - N/A   Clear
1:35 AM 51.3 °F 40.5 °F 67% 30.31 in 10.0 mi North 5.8 mph - N/A   Clear
1:55 AM 51.1 °F 41.2 °F 69% 30.31 in 10.0 mi North 6.9 mph - N/A   Clear
2:15 AM 50.9 °F 41.4 °F 70% 30.31 in 10.0 mi North 5.8 mph - N/A   Clear
2:35 AM 50.5 °F 41.0 °F 70% 30.31 in 10.0 mi North 8.1 mph - N/A   Clear
2:55 AM 49.3 °F 39.6 °F 69% 30.32 in 10.0 mi North 8.1 mph - N/A   Clear
3:15 AM 49.3 °F 39.6 °F 69% 30.31 in 10.0 mi North 8.1 mph - N/A   Clear
3:35 AM 50.2 °F 41.0 °F 71% 30.30 in 10.0 mi North 6.9 mph - N/A   Mostly Cloudy
3:55 AM 51.4 °F 43.0 °F 73% 30.30 in 10.0 mi North 6.9 mph - N/A   Mostly Cloudy
4:15 AM 49.8 °F 42.1 °F 75% 30.30 in 10.0 mi North 6.9 mph - N/A   Scattered Clouds
4:35 AM 50.9 °F 43.2 °F 75% 30.30 in 10.0 mi North 9.2 mph - N/A   Clear
4:55 AM 50.9 °F 43.2 °F 75% 30.29 in 10.0 mi NNE 8.1 mph - N/A   Clear
5:15 AM 51.4 °F 42.8 °F 72% 30.30 in 10.0 mi NNE 8.1 mph - N/A   Clear
5:35 AM 50.9 °F 41.4 °F 70% 30.30 in 10.0 mi NNE 8.1 mph - N/A   Clear
5:55 AM 50.4 °F 40.3 °F 68% 30.30 in 10.0 mi NNE 6.9 mph - N/A   Clear
6:15 AM 50.0 °F 39.0 °F 66% 30.31 in 10.0 mi North 10.4 mph - N/A   Clear
6:35 AM 49.6 °F 38.3 °F 65% 30.30 in 10.0 mi NNE 8.1 mph - N/A   Clear
6:55 AM 50.0 °F 37.8 °F 63% 30.30 in 10.0 mi NNE 8.1 mph - N/A   Clear
7:15 AM 49.5 °F 37.8 °F 64% 30.32 in 10.0 mi North 5.8 mph - N/A   Clear
7:35 AM 50.2 °F 38.1 °F 63% 30.32 in 10.0 mi NNE 5.8 mph - N/A   Clear
7:55 AM 51.1 °F 38.3 °F 62% 30.33 in 10.0 mi NNE 5.8 mph - N/A   Clear
8:15 AM 52.5 °F 38.8 °F 60% 30.34 in 10.0 mi NNE 5.8 mph - N/A   Clear
8:35 AM 54.5 °F 40.1 °F 58% 30.34 in 10.0 mi NNE 5.8 mph - N/A   Clear
8:55 AM 57.4 °F 41.9 °F 56% 30.35 in 10.0 mi NNE 4.6 mph - N/A   Clear
9:15 AM 59.9 °F 42.4 °F 52% 30.35 in 10.0 mi NNE 6.9 mph - N/A   Clear
9:35 AM 62.8 °F 43.0 °F 48% 30.35 in 10.0 mi NNE 5.8 mph - N/A   Clear
9:55 AM 64.9 °F 43.9 °F 46% 30.36 in 10.0 mi NE 8.1 mph - N/A   Clear
10:15 AM 66.0 °F 45.3 °F 47% 30.36 in 10.0 mi NE 8.1 mph - N/A   Clear
10:35 AM 67.6 °F 47.5 °F 48% 30.36 in 10.0 mi NE 8.1 mph - N/A   Clear
11:55 AM 72.1 °F 49.1 °F 44% 30.34 in 10.0 mi East 5.8 mph - N/A   Clear
12:15 PM 72.1 °F 46.4 °F 40% 30.32 in 10.0 mi NE 5.8 mph - N/A   Clear
12:35 PM 72.5 °F 48.4 °F 42% 30.31 in 10.0 mi ENE 5.8 mph - N/A   Clear
12:55 PM 73.0 °F 47.1 °F 40% 30.29 in 10.0 mi ESE 6.9 mph - N/A   Clear
1:15 PM 73.4 °F 47.7 °F 40% 30.29 in 10.0 mi ESE 6.9 mph - N/A   Clear
1:35 PM 73.8 °F 47.3 °F 39% 30.28 in 10.0 mi East 4.6 mph - N/A   Clear
1:55 PM 73.9 °F 46.2 °F 37% 30.27 in 10.0 mi East 9.2 mph - N/A   Clear
2:15 PM 74.1 °F 45.3 °F 36% 30.26 in 10.0 mi East 3.5 mph - N/A   Clear
2:35 PM 74.3 °F 46.8 °F 37% 30.27 in 10.0 mi NE 8.1 mph - N/A   Clear
2:55 PM 74.1 °F 43.7 °F 34% 30.27 in 10.0 mi East 10.4 mph - N/A   Clear
3:15 PM 74.8 °F 46.6 °F 37% 30.27 in 10.0 mi ENE 8.1 mph - N/A   Clear
3:35 PM 73.8 °F 47.3 °F 39% 30.27 in 10.0 mi ENE 8.1 mph - N/A   Clear
3:55 PM 73.0 °F 48.6 °F 42% 30.27 in 10.0 mi East 9.2 mph - N/A   Clear
4:15 PM 72.7 °F 48.2 °F 42% 30.27 in 10.0 mi ESE 10.4 mph - N/A   Clear
4:35 PM 71.8 °F 49.6 °F 45% 30.27 in 10.0 mi ESE 10.4 mph - N/A   Clear
4:55 PM 70.7 °F 50.9 °F 49% 30.27 in 10.0 mi ESE 10.4 mph - N/A   Clear
5:15 PM 69.8 °F 52.0 °F 53% 30.27 in 10.0 mi East 10.4 mph - N/A   Clear
5:35 PM 68.4 °F 53.4 °F 59% 30.27 in 10.0 mi East 11.5 mph - N/A   Clear
5:55 PM 67.5 °F 53.8 °F 61% 30.28 in 10.0 mi East 9.2 mph - N/A   Clear
6:15 PM 66.6 °F 54.3 °F 65% 30.28 in 10.0 mi East 10.4 mph - N/A   Clear
6:35 PM 65.8 °F 53.8 °F 65% 30.29 in 10.0 mi East 9.2 mph - N/A   Clear
6:55 PM 65.3 °F 54.0 °F 67% 30.29 in 10.0 mi East 9.2 mph - N/A   Clear
7:15 PM 64.6 °F 54.1 °F 69% 30.29 in 10.0 mi East 9.2 mph - N/A   Clear
7:35 PM 63.7 °F 53.4 °F 69% 30.29 in 10.0 mi East 8.1 mph - N/A   Clear
7:55 PM 63.5 °F 53.2 °F 69% 30.29 in 10.0 mi East 10.4 mph - N/A   Clear
8:15 PM 62.6 °F 52.7 °F 70% 30.30 in 10.0 mi East 8.1 mph - N/A   Clear
8:35 PM 61.5 °F 51.6 °F 70% 30.30 in 10.0 mi East 6.9 mph - N/A   Clear
8:55 PM 61.7 °F 51.3 °F 69% 30.29 in 10.0 mi East 6.9 mph - N/A   Clear
9:15 PM 61.2 °F 50.7 °F 69% 30.30 in 10.0 mi East 5.8 mph - N/A   Clear
9:35 PM 60.6 °F 50.4 °F 69% 30.29 in 10.0 mi East 8.1 mph - N/A   Clear
9:55 PM 59.2 °F 49.5 °F 70% 30.29 in 10.0 mi East 6.9 mph - N/A   Clear
10:15 PM 58.5 °F 49.1 °F 71% 30.29 in 10.0 mi East 5.8 mph - N/A   Clear
10:35 PM 57.7 °F 49.5 °F 74% 30.28 in 10.0 mi East 8.1 mph - N/A   Clear
10:55 PM 57.4 °F 49.5 °F 75% 30.27 in 10.0 mi East 6.9 mph - N/A   Clear
11:15 PM 58.5 °F 50.0 °F 73% 30.27 in 10.0 mi East 6.9 mph - N/A   Clear
11:35 PM 59.7 °F 49.6 °F 69% 30.29 in 10.0 mi NE 3.5 mph - N/A   Clear
11:55 PM 59.2 °F 50.0 °F 72% 30.28 in 10.0 mi ENE 4.6 mph - N/A   Clear